sensor_id;sensor_type;location;lat;lon;timestamp;temperature;humidity
31038;DHT22;17702;47.590;7.666;2022-08-03T00:01:32;20.30;76.00
31038;DHT22;17702;47.590;7.666;2022-08-03T00:03:58;20.50;75.00
31038;DHT22;17702;47.590;7.666;2022-08-03T00:06:24;20.40;75.70
31038;DHT22;17702;47.590;7.666;2022-08-03T00:08:50;20.30;76.00
31038;DHT22;17702;47.590;7.666;2022-08-03T00:11:15;20.10;76.30
31038;DHT22;17702;47.590;7.666;2022-08-03T00:13:41;20.10;76.20
31038;DHT22;17702;47.590;7.666;2022-08-03T00:16:07;20.10;76.20
31038;DHT22;17702;47.590;7.666;2022-08-03T00:18:33;20.10;75.80
31038;DHT22;17702;47.590;7.666;2022-08-03T00:20:58;19.90;75.90
31038;DHT22;17702;47.590;7.666;2022-08-03T00:23:24;20.00;76.20
31038;DHT22;17702;47.590;7.666;2022-08-03T00:25:50;20.00;76.50
31038;DHT22;17702;47.590;7.666;2022-08-03T00:28:15;20.10;75.90
31038;DHT22;17702;47.590;7.666;2022-08-03T00:30:41;20.20;76.10
31038;DHT22;17702;47.590;7.666;2022-08-03T00:33:06;20.10;76.10
31038;DHT22;17702;47.590;7.666;2022-08-03T00:35:34;20.10;75.90
31038;DHT22;17702;47.590;7.666;2022-08-03T00:38:00;20.00;75.70
31038;DHT22;17702;47.590;7.666;2022-08-03T00:40:26;20.00;75.30
31038;DHT22;17702;47.590;7.666;2022-08-03T00:42:58;20.10;74.90
31038;DHT22;17702;47.590;7.666;2022-08-03T00:45:26;20.00;75.40
31038;DHT22;17702;47.590;7.666;2022-08-03T00:47:53;20.00;76.10
31038;DHT22;17702;47.590;7.666;2022-08-03T00:50:20;20.10;75.40
31038;DHT22;17702;47.590;7.666;2022-08-03T00:52:48;20.30;74.80
31038;DHT22;17702;47.590;7.666;2022-08-03T00:55:14;20.30;74.40
31038;DHT22;17702;47.590;7.666;2022-08-03T00:57:41;20.30;73.80
31038;DHT22;17702;47.590;7.666;2022-08-03T01:00:08;20.00;74.90
31038;DHT22;17702;47.590;7.666;2022-08-03T01:02:35;19.90;75.40
31038;DHT22;17702;47.590;7.666;2022-08-03T01:05:01;19.80;75.90
31038;DHT22;17702;47.590;7.666;2022-08-03T01:15:40;19.60;75.80
31038;DHT22;17702;47.590;7.666;2022-08-03T01:18:08;19.70;75.10
31038;DHT22;17702;47.590;7.666;2022-08-03T01:20:39;19.80;74.80
31038;DHT22;17702;47.590;7.666;2022-08-03T01:31:45;20.00;74.70
31038;DHT22;17702;47.590;7.666;2022-08-03T01:34:15;19.90;74.40
31038;DHT22;17702;47.590;7.666;2022-08-03T01:36:51;19.80;75.60
31038;DHT22;17702;47.590;7.666;2022-08-03T01:39:18;19.60;76.30
31038;DHT22;17702;47.590;7.666;2022-08-03T01:41:55;19.80;75.30
31038;DHT22;17702;47.590;7.666;2022-08-03T01:44:28;19.60;75.50
31038;DHT22;17702;47.590;7.666;2022-08-03T01:46:57;19.40;76.10
31038;DHT22;17702;47.590;7.666;2022-08-03T01:49:24;19.50;75.60
31038;DHT22;17702;47.590;7.666;2022-08-03T01:51:52;19.50;76.00
31038;DHT22;17702;47.590;7.666;2022-08-03T01:54:18;19.50;76.20
31038;DHT22;17702;47.590;7.666;2022-08-03T01:56:45;19.50;75.70
31038;DHT22;17702;47.590;7.666;2022-08-03T01:59:14;19.60;75.40
31038;DHT22;17702;47.590;7.666;2022-08-03T02:01:42;19.50;75.70
31038;DHT22;17702;47.590;7.666;2022-08-03T02:04:10;19.30;76.40
31038;DHT22;17702;47.590;7.666;2022-08-03T02:06:38;19.10;77.20
31038;DHT22;17702;47.590;7.666;2022-08-03T02:09:05;19.20;76.50
31038;DHT22;17702;47.590;7.666;2022-08-03T02:11:34;19.10;77.10
31038;DHT22;17702;47.590;7.666;2022-08-03T02:14:02;19.40;76.10
31038;DHT22;17702;47.590;7.666;2022-08-03T02:16:29;19.50;75.50
31038;DHT22;17702;47.590;7.666;2022-08-03T02:18:56;19.40;76.10
31038;DHT22;17702;47.590;7.666;2022-08-03T02:21:22;19.20;76.50
31038;DHT22;17702;47.590;7.666;2022-08-03T02:23:48;19.40;76.20
31038;DHT22;17702;47.590;7.666;2022-08-03T02:26:16;19.20;77.10
31038;DHT22;17702;47.590;7.666;2022-08-03T02:28:46;19.20;76.30
31038;DHT22;17702;47.590;7.666;2022-08-03T02:31:19;19.20;76.70
31038;DHT22;17702;47.590;7.666;2022-08-03T02:33:49;19.40;75.70
31038;DHT22;17702;47.590;7.666;2022-08-03T02:36:19;19.30;75.50
31038;DHT22;17702;47.590;7.666;2022-08-03T02:38:50;19.10;76.30
31038;DHT22;17702;47.590;7.666;2022-08-03T02:41:23;19.00;77.00
31038;DHT22;17702;47.590;7.666;2022-08-03T02:43:53;19.10;77.00
31038;DHT22;17702;47.590;7.666;2022-08-03T02:46:21;19.30;76.20
31038;DHT22;17702;47.590;7.666;2022-08-03T02:48:51;19.30;75.90
31038;DHT22;17702;47.590;7.666;2022-08-03T02:51:18;19.40;75.70
31038;DHT22;17702;47.590;7.666;2022-08-03T02:53:46;19.50;74.90
31038;DHT22;17702;47.590;7.666;2022-08-03T02:56:13;19.40;75.30
31038;DHT22;17702;47.590;7.666;2022-08-03T02:58:42;19.30;75.70
31038;DHT22;17702;47.590;7.666;2022-08-03T03:01:08;19.10;76.80
31038;DHT22;17702;47.590;7.666;2022-08-03T03:03:35;19.30;76.50
31038;DHT22;17702;47.590;7.666;2022-08-03T03:06:01;19.20;76.40
31038;DHT22;17702;47.590;7.666;2022-08-03T03:08:27;19.10;76.50
31038;DHT22;17702;47.590;7.666;2022-08-03T03:10:58;19.00;76.50
31038;DHT22;17702;47.590;7.666;2022-08-03T03:13:27;19.00;76.90
31038;DHT22;17702;47.590;7.666;2022-08-03T03:15:53;19.00;77.00
31038;DHT22;17702;47.590;7.666;2022-08-03T03:18:20;18.90;77.20
31038;DHT22;17702;47.590;7.666;2022-08-03T03:20:48;19.10;77.20
31038;DHT22;17702;47.590;7.666;2022-08-03T03:23:15;19.10;76.60
31038;DHT22;17702;47.590;7.666;2022-08-03T03:25:42;19.20;76.50
31038;DHT22;17702;47.590;7.666;2022-08-03T03:28:09;19.40;75.50
31038;DHT22;17702;47.590;7.666;2022-08-03T03:30:35;19.40;75.10
31038;DHT22;17702;47.590;7.666;2022-08-03T03:33:01;19.40;75.30
31038;DHT22;17702;47.590;7.666;2022-08-03T03:35:27;19.10;76.50
31038;DHT22;17702;47.590;7.666;2022-08-03T03:37:53;19.10;76.50
31038;DHT22;17702;47.590;7.666;2022-08-03T03:40:19;19.20;75.90
31038;DHT22;17702;47.590;7.666;2022-08-03T03:42:45;19.10;76.60
31038;DHT22;17702;47.590;7.666;2022-08-03T03:45:11;19.10;76.50
31038;DHT22;17702;47.590;7.666;2022-08-03T03:47:37;19.00;76.50
31038;DHT22;17702;47.590;7.666;2022-08-03T03:50:05;18.80;76.90
31038;DHT22;17702;47.590;7.666;2022-08-03T03:52:32;18.70;76.90
31038;DHT22;17702;47.590;7.666;2022-08-03T03:54:57;18.50;77.90
31038;DHT22;17702;47.590;7.666;2022-08-03T03:57:23;18.70;77.30
31038;DHT22;17702;47.590;7.666;2022-08-03T03:59:49;18.60;77.50
31038;DHT22;17702;47.590;7.666;2022-08-03T04:02:15;18.50;77.80
31038;DHT22;17702;47.590;7.666;2022-08-03T04:04:40;18.40;78.50
31038;DHT22;17702;47.590;7.666;2022-08-03T04:07:26;18.50;78.80
31038;DHT22;17702;47.590;7.666;2022-08-03T04:10:20;18.40;78.40
31038;DHT22;17702;47.590;7.666;2022-08-03T04:13:09;18.40;78.20
31038;DHT22;17702;47.590;7.666;2022-08-03T04:15:38;18.30;78.70
31038;DHT22;17702;47.590;7.666;2022-08-03T04:18:08;18.20;78.70
31038;DHT22;17702;47.590;7.666;2022-08-03T04:20:36;18.20;78.70
31038;DHT22;17702;47.590;7.666;2022-08-03T04:23:04;18.30;78.80
31038;DHT22;17702;47.590;7.666;2022-08-03T04:25:33;18.40;78.80
31038;DHT22;17702;47.590;7.666;2022-08-03T04:28:01;18.30;79.10
31038;DHT22;17702;47.590;7.666;2022-08-03T04:30:28;18.30;79.00
31038;DHT22;17702;47.590;7.666;2022-08-03T04:32:57;18.30;78.80
31038;DHT22;17702;47.590;7.666;2022-08-03T04:35:24;18.40;78.40
31038;DHT22;17702;47.590;7.666;2022-08-03T04:37:52;18.60;77.90
31038;DHT22;17702;47.590;7.666;2022-08-03T04:40:28;18.60;78.10
31038;DHT22;17702;47.590;7.666;2022-08-03T04:42:55;18.60;78.70
31038;DHT22;17702;47.590;7.666;2022-08-03T04:45:21;18.60;78.50
31038;DHT22;17702;47.590;7.666;2022-08-03T04:47:49;18.60;78.50
31038;DHT22;17702;47.590;7.666;2022-08-03T04:50:15;18.50;78.70
31038;DHT22;17702;47.590;7.666;2022-08-03T04:52:41;18.80;78.20
31038;DHT22;17702;47.590;7.666;2022-08-03T04:55:07;18.80;78.00
31038;DHT22;17702;47.590;7.666;2022-08-03T04:57:33;18.80;78.20
31038;DHT22;17702;47.590;7.666;2022-08-03T04:59:58;18.80;78.20
31038;DHT22;17702;47.590;7.666;2022-08-03T05:02:25;18.80;77.80
31038;DHT22;17702;47.590;7.666;2022-08-03T05:04:51;18.90;77.80
31038;DHT22;17702;47.590;7.666;2022-08-03T05:07:17;18.90;77.90
31038;DHT22;17702;47.590;7.666;2022-08-03T05:09:43;18.80;78.10
31038;DHT22;17702;47.590;7.666;2022-08-03T05:12:09;18.90;78.10
31038;DHT22;17702;47.590;7.666;2022-08-03T05:14:36;19.00;77.30
31038;DHT22;17702;47.590;7.666;2022-08-03T05:17:04;19.00;77.90
31038;DHT22;17702;47.590;7.666;2022-08-03T05:19:30;18.90;78.00
31038;DHT22;17702;47.590;7.666;2022-08-03T05:21:56;19.00;78.00
31038;DHT22;17702;47.590;7.666;2022-08-03T05:24:21;19.00;78.20
31038;DHT22;17702;47.590;7.666;2022-08-03T05:26:47;19.10;77.70
31038;DHT22;17702;47.590;7.666;2022-08-03T05:29:12;19.10;78.30
31038;DHT22;17702;47.590;7.666;2022-08-03T05:31:38;19.10;78.70
31038;DHT22;17702;47.590;7.666;2022-08-03T05:34:04;19.20;77.60
31038;DHT22;17702;47.590;7.666;2022-08-03T05:36:30;19.30;76.90
31038;DHT22;17702;47.590;7.666;2022-08-03T05:38:56;19.30;77.80
31038;DHT22;17702;47.590;7.666;2022-08-03T05:41:22;19.50;76.60
31038;DHT22;17702;47.590;7.666;2022-08-03T05:43:47;19.50;77.10
31038;DHT22;17702;47.590;7.666;2022-08-03T05:46:14;19.60;77.10
31038;DHT22;17702;47.590;7.666;2022-08-03T05:48:40;19.60;77.30
31038;DHT22;17702;47.590;7.666;2022-08-03T05:51:06;19.70;76.90
31038;DHT22;17702;47.590;7.666;2022-08-03T05:53:35;19.80;76.60
31038;DHT22;17702;47.590;7.666;2022-08-03T05:56:02;19.90;76.60
31038;DHT22;17702;47.590;7.666;2022-08-03T05:58:27;20.00;76.00
31038;DHT22;17702;47.590;7.666;2022-08-03T06:00:53;20.20;76.50
31038;DHT22;17702;47.590;7.666;2022-08-03T06:03:19;20.30;75.80
31038;DHT22;17702;47.590;7.666;2022-08-03T06:05:45;20.50;75.10
31038;DHT22;17702;47.590;7.666;2022-08-03T06:08:10;20.70;75.50
31038;DHT22;17702;47.590;7.666;2022-08-03T06:10:36;20.70;74.00
31038;DHT22;17702;47.590;7.666;2022-08-03T06:13:02;20.90;73.60
31038;DHT22;17702;47.590;7.666;2022-08-03T06:15:28;20.90;74.80
31038;DHT22;17702;47.590;7.666;2022-08-03T06:17:55;21.00;73.40
31038;DHT22;17702;47.590;7.666;2022-08-03T06:20:22;21.10;72.70
31038;DHT22;17702;47.590;7.666;2022-08-03T06:22:48;21.20;72.00
31038;DHT22;17702;47.590;7.666;2022-08-03T06:25:14;21.40;72.10
31038;DHT22;17702;47.590;7.666;2022-08-03T06:27:41;21.50;72.70
31038;DHT22;17702;47.590;7.666;2022-08-03T06:30:08;21.60;71.60
31038;DHT22;17702;47.590;7.666;2022-08-03T06:32:38;21.80;71.20
31038;DHT22;17702;47.590;7.666;2022-08-03T06:35:08;21.90;71.50
31038;DHT22;17702;47.590;7.666;2022-08-03T06:37:45;22.00;72.30
31038;DHT22;17702;47.590;7.666;2022-08-03T06:40:17;22.20;71.20
31038;DHT22;17702;47.590;7.666;2022-08-03T06:42:43;22.30;69.90
31038;DHT22;17702;47.590;7.666;2022-08-03T06:45:10;22.50;70.40
31038;DHT22;17702;47.590;7.666;2022-08-03T06:47:36;22.60;70.00
31038;DHT22;17702;47.590;7.666;2022-08-03T06:50:03;22.80;69.10
31038;DHT22;17702;47.590;7.666;2022-08-03T06:52:29;23.00;68.90
31038;DHT22;17702;47.590;7.666;2022-08-03T06:54:54;23.10;69.90
31038;DHT22;17702;47.590;7.666;2022-08-03T06:57:20;23.30;69.00
31038;DHT22;17702;47.590;7.666;2022-08-03T06:59:46;23.50;67.70
31038;DHT22;17702;47.590;7.666;2022-08-03T07:02:12;23.60;68.30
31038;DHT22;17702;47.590;7.666;2022-08-03T07:04:37;23.80;68.00
31038;DHT22;17702;47.590;7.666;2022-08-03T07:07:03;24.00;66.80
31038;DHT22;17702;47.590;7.666;2022-08-03T07:09:29;24.10;66.90
31038;DHT22;17702;47.590;7.666;2022-08-03T07:11:54;24.30;65.50
31038;DHT22;17702;47.590;7.666;2022-08-03T07:14:21;24.40;63.70
31038;DHT22;17702;47.590;7.666;2022-08-03T07:16:47;24.60;63.80
31038;DHT22;17702;47.590;7.666;2022-08-03T07:19:13;24.70;64.00
31038;DHT22;17702;47.590;7.666;2022-08-03T07:21:38;24.90;64.40
31038;DHT22;17702;47.590;7.666;2022-08-03T07:24:04;25.10;65.20
31038;DHT22;17702;47.590;7.666;2022-08-03T07:26:30;25.30;63.00
31038;DHT22;17702;47.590;7.666;2022-08-03T07:28:55;25.50;61.70
31038;DHT22;17702;47.590;7.666;2022-08-03T07:31:21;25.70;60.20
31038;DHT22;17702;47.590;7.666;2022-08-03T07:33:47;25.70;60.20
31038;DHT22;17702;47.590;7.666;2022-08-03T07:36:12;25.90;59.60
31038;DHT22;17702;47.590;7.666;2022-08-03T07:38:38;26.10;59.10
31038;DHT22;17702;47.590;7.666;2022-08-03T07:41:03;26.30;58.70
31038;DHT22;17702;47.590;7.666;2022-08-03T07:43:29;26.50;59.70
31038;DHT22;17702;47.590;7.666;2022-08-03T07:45:55;26.60;58.80
31038;DHT22;17702;47.590;7.666;2022-08-03T07:48:20;26.80;58.50
31038;DHT22;17702;47.590;7.666;2022-08-03T07:50:46;26.90;59.30
31038;DHT22;17702;47.590;7.666;2022-08-03T07:53:11;27.10;58.90
31038;DHT22;17702;47.590;7.666;2022-08-03T07:55:37;27.20;57.30
31038;DHT22;17702;47.590;7.666;2022-08-03T07:58:09;27.40;57.30
31038;DHT22;17702;47.590;7.666;2022-08-03T08:00:36;27.50;54.40
31038;DHT22;17702;47.590;7.666;2022-08-03T08:03:03;27.70;54.80
31038;DHT22;17702;47.590;7.666;2022-08-03T08:05:29;27.80;56.20
31038;DHT22;17702;47.590;7.666;2022-08-03T08:07:54;27.90;55.30
31038;DHT22;17702;47.590;7.666;2022-08-03T08:10:20;28.10;54.90
31038;DHT22;17702;47.590;7.666;2022-08-03T08:12:46;28.20;53.20
31038;DHT22;17702;47.590;7.666;2022-08-03T08:15:12;28.30;54.00
31038;DHT22;17702;47.590;7.666;2022-08-03T08:17:49;28.50;52.60
31038;DHT22;17702;47.590;7.666;2022-08-03T08:20:21;28.60;53.30
31038;DHT22;17702;47.590;7.666;2022-08-03T08:22:47;28.80;53.70
31038;DHT22;17702;47.590;7.666;2022-08-03T08:25:13;28.90;52.40
31038;DHT22;17702;47.590;7.666;2022-08-03T08:27:47;29.00;53.30
31038;DHT22;17702;47.590;7.666;2022-08-03T08:30:14;29.20;52.80
31038;DHT22;17702;47.590;7.666;2022-08-03T08:32:40;29.40;49.90
31038;DHT22;17702;47.590;7.666;2022-08-03T08:35:07;29.40;49.80
31038;DHT22;17702;47.590;7.666;2022-08-03T08:37:33;29.50;50.20
31038;DHT22;17702;47.590;7.666;2022-08-03T08:39:59;29.60;51.20
31038;DHT22;17702;47.590;7.666;2022-08-03T08:42:24;29.70;50.70
31038;DHT22;17702;47.590;7.666;2022-08-03T08:44:50;29.70;49.20
31038;DHT22;17702;47.590;7.666;2022-08-03T08:47:18;29.80;48.60
31038;DHT22;17702;47.590;7.666;2022-08-03T08:49:45;30.00;49.00
31038;DHT22;17702;47.590;7.666;2022-08-03T08:52:12;30.10;48.90
31038;DHT22;17702;47.590;7.666;2022-08-03T08:54:40;30.30;48.70
31038;DHT22;17702;47.590;7.666;2022-08-03T08:57:09;30.40;47.70
31038;DHT22;17702;47.590;7.666;2022-08-03T08:59:35;30.70;49.40
31038;DHT22;17702;47.590;7.666;2022-08-03T09:02:01;30.70;47.40
31038;DHT22;17702;47.590;7.666;2022-08-03T09:04:28;30.80;45.70
31038;DHT22;17702;47.590;7.666;2022-08-03T09:06:55;30.90;45.40
31038;DHT22;17702;47.590;7.666;2022-08-03T09:09:21;31.00;47.60
31038;DHT22;17702;47.590;7.666;2022-08-03T09:11:48;31.00;45.50
31038;DHT22;17702;47.590;7.666;2022-08-03T09:14:14;31.20;45.30
31038;DHT22;17702;47.590;7.666;2022-08-03T09:16:55;31.20;44.80
31038;DHT22;17702;47.590;7.666;2022-08-03T09:19:23;31.30;44.60
31038;DHT22;17702;47.590;7.666;2022-08-03T09:24:36;31.40;43.70
31038;DHT22;17702;47.590;7.666;2022-08-03T09:27:05;31.70;42.80
31038;DHT22;17702;47.590;7.666;2022-08-03T09:29:31;31.70;41.40
31038;DHT22;17702;47.590;7.666;2022-08-03T09:32:02;31.90;43.10
31038;DHT22;17702;47.590;7.666;2022-08-03T09:34:29;32.00;41.90
31038;DHT22;17702;47.590;7.666;2022-08-03T09:36:55;32.30;39.80
31038;DHT22;17702;47.590;7.666;2022-08-03T09:39:24;32.40;39.50
31038;DHT22;17702;47.590;7.666;2022-08-03T09:42:08;32.50;38.50
31038;DHT22;17702;47.590;7.666;2022-08-03T09:44:36;32.70;38.10
31038;DHT22;17702;47.590;7.666;2022-08-03T09:47:02;32.90;41.60
31038;DHT22;17702;47.590;7.666;2022-08-03T09:49:28;33.00;37.90
31038;DHT22;17702;47.590;7.666;2022-08-03T09:51:55;33.10;36.60
31038;DHT22;17702;47.590;7.666;2022-08-03T09:54:31;33.30;37.30
31038;DHT22;17702;47.590;7.666;2022-08-03T09:56:57;33.40;36.40
31038;DHT22;17702;47.590;7.666;2022-08-03T09:59:28;33.60;37.30
31038;DHT22;17702;47.590;7.666;2022-08-03T10:01:55;33.60;36.80
31038;DHT22;17702;47.590;7.666;2022-08-03T10:04:21;33.80;37.30
31038;DHT22;17702;47.590;7.666;2022-08-03T10:07:06;33.90;36.40
31038;DHT22;17702;47.590;7.666;2022-08-03T10:09:34;34.00;36.90
31038;DHT22;17702;47.590;7.666;2022-08-03T10:12:13;34.00;38.60
31038;DHT22;17702;47.590;7.666;2022-08-03T10:14:40;34.00;37.20
31038;DHT22;17702;47.590;7.666;2022-08-03T10:17:06;33.90;38.90
31038;DHT22;17702;47.590;7.666;2022-08-03T10:19:32;34.10;39.10
31038;DHT22;17702;47.590;7.666;2022-08-03T10:22:21;34.10;38.20
31038;DHT22;17702;47.590;7.666;2022-08-03T10:25:05;34.20;36.00
31038;DHT22;17702;47.590;7.666;2022-08-03T10:27:37;34.10;37.70
31038;DHT22;17702;47.590;7.666;2022-08-03T10:30:06;34.00;36.30
31038;DHT22;17702;47.590;7.666;2022-08-03T10:32:53;34.00;38.60
31038;DHT22;17702;47.590;7.666;2022-08-03T10:35:22;33.90;37.10
31038;DHT22;17702;47.590;7.666;2022-08-03T10:37:59;33.90;38.10
31038;DHT22;17702;47.590;7.666;2022-08-03T10:40:28;33.90;38.50
31038;DHT22;17702;47.590;7.666;2022-08-03T10:42:57;34.00;37.00
31038;DHT22;17702;47.590;7.666;2022-08-03T10:45:26;34.10;38.20
31038;DHT22;17702;47.590;7.666;2022-08-03T10:47:53;34.10;37.30
31038;DHT22;17702;47.590;7.666;2022-08-03T10:50:22;34.20;38.70
31038;DHT22;17702;47.590;7.666;2022-08-03T10:52:57;34.20;38.00
31038;DHT22;17702;47.590;7.666;2022-08-03T10:58:48;34.40;37.80
31038;DHT22;17702;47.590;7.666;2022-08-03T11:01:14;34.50;35.20
31038;DHT22;17702;47.590;7.666;2022-08-03T11:06:19;34.60;33.70
31038;DHT22;17702;47.590;7.666;2022-08-03T11:08:47;34.50;35.70
31038;DHT22;17702;47.590;7.666;2022-08-03T11:16:21;34.70;33.50
31038;DHT22;17702;47.590;7.666;2022-08-03T11:19:02;34.90;33.80
31038;DHT22;17702;47.590;7.666;2022-08-03T11:35:20;34.90;32.40
31038;DHT22;17702;47.590;7.666;2022-08-03T11:40:46;34.90;32.50
31038;DHT22;17702;47.590;7.666;2022-08-03T11:48:22;34.80;32.90
31038;DHT22;17702;47.590;7.666;2022-08-03T11:50:48;34.70;32.00
31038;DHT22;17702;47.590;7.666;2022-08-03T11:53:15;34.90;31.40
31038;DHT22;17702;47.590;7.666;2022-08-03T11:55:44;34.80;30.00
31038;DHT22;17702;47.590;7.666;2022-08-03T11:58:17;34.80;31.80
31038;DHT22;17702;47.590;7.666;2022-08-03T12:01:04;34.80;31.60
31038;DHT22;17702;47.590;7.666;2022-08-03T12:03:32;34.90;30.10
31038;DHT22;17702;47.590;7.666;2022-08-03T12:05:58;34.90;31.00
31038;DHT22;17702;47.590;7.666;2022-08-03T12:10:52;35.00;31.20
31038;DHT22;17702;47.590;7.666;2022-08-03T12:13:19;35.00;31.90
31038;DHT22;17702;47.590;7.666;2022-08-03T12:15:53;35.10;31.60
31038;DHT22;17702;47.590;7.666;2022-08-03T12:18:21;35.10;30.50
31038;DHT22;17702;47.590;7.666;2022-08-03T12:20:49;35.10;29.80
31038;DHT22;17702;47.590;7.666;2022-08-03T12:23:15;35.10;29.50
31038;DHT22;17702;47.590;7.666;2022-08-03T12:25:42;35.10;29.50
31038;DHT22;17702;47.590;7.666;2022-08-03T12:28:18;35.10;29.50
31038;DHT22;17702;47.590;7.666;2022-08-03T12:30:46;35.20;30.10
31038;DHT22;17702;47.590;7.666;2022-08-03T12:33:24;35.30;29.40
31038;DHT22;17702;47.590;7.666;2022-08-03T12:36:10;35.30;29.70
31038;DHT22;17702;47.590;7.666;2022-08-03T12:38:38;35.30;29.70
31038;DHT22;17702;47.590;7.666;2022-08-03T12:41:06;35.20;29.30
31038;DHT22;17702;47.590;7.666;2022-08-03T12:43:33;35.20;29.70
31038;DHT22;17702;47.590;7.666;2022-08-03T12:46:09;35.10;29.80
31038;DHT22;17702;47.590;7.666;2022-08-03T12:48:35;35.10;30.70
31038;DHT22;17702;47.590;7.666;2022-08-03T12:51:10;35.20;30.80
31038;DHT22;17702;47.590;7.666;2022-08-03T12:53:36;35.30;30.60
31038;DHT22;17702;47.590;7.666;2022-08-03T12:56:03;35.30;30.10
31038;DHT22;17702;47.590;7.666;2022-08-03T12:58:31;35.40;31.50
31038;DHT22;17702;47.590;7.666;2022-08-03T13:00:58;35.40;30.80
31038;DHT22;17702;47.590;7.666;2022-08-03T13:03:24;35.50;30.50
31038;DHT22;17702;47.590;7.666;2022-08-03T13:05:49;35.50;30.80
31038;DHT22;17702;47.590;7.666;2022-08-03T13:08:20;35.50;31.30
31038;DHT22;17702;47.590;7.666;2022-08-03T13:10:46;35.50;31.00
31038;DHT22;17702;47.590;7.666;2022-08-03T13:13:12;35.60;29.70
31038;DHT22;17702;47.590;7.666;2022-08-03T13:15:37;35.40;31.40
31038;DHT22;17702;47.590;7.666;2022-08-03T13:18:03;35.40;31.20
31038;DHT22;17702;47.590;7.666;2022-08-03T13:20:28;35.40;32.10
31038;DHT22;17702;47.590;7.666;2022-08-03T13:22:54;35.50;31.70
31038;DHT22;17702;47.590;7.666;2022-08-03T13:25:21;35.40;30.40
31038;DHT22;17702;47.590;7.666;2022-08-03T13:27:47;35.40;31.80
31038;DHT22;17702;47.590;7.666;2022-08-03T13:30:14;35.40;30.20
31038;DHT22;17702;47.590;7.666;2022-08-03T13:32:41;35.30;31.50
31038;DHT22;17702;47.590;7.666;2022-08-03T13:35:07;35.30;30.10
31038;DHT22;17702;47.590;7.666;2022-08-03T13:37:33;35.30;30.90
31038;DHT22;17702;47.590;7.666;2022-08-03T13:40:00;35.30;31.20
31038;DHT22;17702;47.590;7.666;2022-08-03T13:42:27;35.30;31.10
31038;DHT22;17702;47.590;7.666;2022-08-03T13:44:53;35.40;31.00
31038;DHT22;17702;47.590;7.666;2022-08-03T13:47:19;35.30;29.90
31038;DHT22;17702;47.590;7.666;2022-08-03T13:49:45;35.20;30.70
31038;DHT22;17702;47.590;7.666;2022-08-03T13:52:10;35.20;31.20
31038;DHT22;17702;47.590;7.666;2022-08-03T13:54:36;35.20;31.80
31038;DHT22;17702;47.590;7.666;2022-08-03T13:57:02;35.20;31.70
31038;DHT22;17702;47.590;7.666;2022-08-03T13:59:27;35.20;31.80
31038;DHT22;17702;47.590;7.666;2022-08-03T14:01:53;35.20;31.50
31038;DHT22;17702;47.590;7.666;2022-08-03T14:04:19;35.20;31.00
31038;DHT22;17702;47.590;7.666;2022-08-03T14:06:45;35.10;30.90
31038;DHT22;17702;47.590;7.666;2022-08-03T14:09:12;35.10;30.90
31038;DHT22;17702;47.590;7.666;2022-08-03T14:11:41;35.00;31.90
31038;DHT22;17702;47.590;7.666;2022-08-03T14:14:07;35.00;32.50
31038;DHT22;17702;47.590;7.666;2022-08-03T14:16:32;35.00;32.90
31038;DHT22;17702;47.590;7.666;2022-08-03T14:18:58;35.00;32.80
31038;DHT22;17702;47.590;7.666;2022-08-03T14:21:24;35.00;31.90
31038;DHT22;17702;47.590;7.666;2022-08-03T14:23:49;35.00;32.80
31038;DHT22;17702;47.590;7.666;2022-08-03T14:26:15;35.10;32.30
31038;DHT22;17702;47.590;7.666;2022-08-03T14:28:42;35.10;33.30
31038;DHT22;17702;47.590;7.666;2022-08-03T14:31:08;35.10;31.90
31038;DHT22;17702;47.590;7.666;2022-08-03T14:33:34;35.00;32.00
31038;DHT22;17702;47.590;7.666;2022-08-03T14:35:59;35.00;34.70
31038;DHT22;17702;47.590;7.666;2022-08-03T14:38:25;35.00;32.50
31038;DHT22;17702;47.590;7.666;2022-08-03T14:40:50;35.00;34.10
31038;DHT22;17702;47.590;7.666;2022-08-03T14:43:17;35.00;32.50
31038;DHT22;17702;47.590;7.666;2022-08-03T14:45:44;35.00;32.10
31038;DHT22;17702;47.590;7.666;2022-08-03T14:48:10;35.00;32.90
31038;DHT22;17702;47.590;7.666;2022-08-03T14:50:36;34.90;31.60
31038;DHT22;17702;47.590;7.666;2022-08-03T14:53:02;34.80;33.20
31038;DHT22;17702;47.590;7.666;2022-08-03T14:55:27;34.80;32.20
31038;DHT22;17702;47.590;7.666;2022-08-03T14:57:53;34.80;32.70
31038;DHT22;17702;47.590;7.666;2022-08-03T15:00:19;34.70;32.00
31038;DHT22;17702;47.590;7.666;2022-08-03T15:02:44;34.70;33.70
31038;DHT22;17702;47.590;7.666;2022-08-03T15:05:10;34.70;32.40
31038;DHT22;17702;47.590;7.666;2022-08-03T15:07:37;34.70;33.60
31038;DHT22;17702;47.590;7.666;2022-08-03T15:10:03;34.70;33.40
31038;DHT22;17702;47.590;7.666;2022-08-03T15:12:29;34.60;34.00
31038;DHT22;17702;47.590;7.666;2022-08-03T15:14:54;34.60;33.90
31038;DHT22;17702;47.590;7.666;2022-08-03T15:17:20;34.60;33.50
31038;DHT22;17702;47.590;7.666;2022-08-03T15:19:46;34.60;33.70
31038;DHT22;17702;47.590;7.666;2022-08-03T15:22:12;34.50;34.20
31038;DHT22;17702;47.590;7.666;2022-08-03T15:24:40;34.50;33.30
31038;DHT22;17702;47.590;7.666;2022-08-03T15:27:06;34.40;34.30
31038;DHT22;17702;47.590;7.666;2022-08-03T15:29:31;34.40;33.90
31038;DHT22;17702;47.590;7.666;2022-08-03T15:31:57;34.40;34.60
31038;DHT22;17702;47.590;7.666;2022-08-03T15:34:22;34.40;34.60
31038;DHT22;17702;47.590;7.666;2022-08-03T15:36:48;34.40;34.50
31038;DHT22;17702;47.590;7.666;2022-08-03T15:39:14;34.40;36.00
31038;DHT22;17702;47.590;7.666;2022-08-03T15:41:39;34.30;34.70
31038;DHT22;17702;47.590;7.666;2022-08-03T15:44:05;34.20;35.70
31038;DHT22;17702;47.590;7.666;2022-08-03T15:46:31;34.20;35.70
31038;DHT22;17702;47.590;7.666;2022-08-03T15:48:56;34.10;37.20
31038;DHT22;17702;47.590;7.666;2022-08-03T15:51:22;34.00;35.20
31038;DHT22;17702;47.590;7.666;2022-08-03T15:53:48;34.00;35.00
31038;DHT22;17702;47.590;7.666;2022-08-03T15:56:13;33.90;35.60
31038;DHT22;17702;47.590;7.666;2022-08-03T15:58:39;33.80;35.50
31038;DHT22;17702;47.590;7.666;2022-08-03T16:01:06;33.80;35.80
31038;DHT22;17702;47.590;7.666;2022-08-03T16:03:32;33.60;35.60
31038;DHT22;17702;47.590;7.666;2022-08-03T16:06:02;33.60;36.30
31038;DHT22;17702;47.590;7.666;2022-08-03T16:08:29;33.60;34.90
31038;DHT22;17702;47.590;7.666;2022-08-03T16:10:56;33.50;35.60
31038;DHT22;17702;47.590;7.666;2022-08-03T16:13:23;33.40;36.10
31038;DHT22;17702;47.590;7.666;2022-08-03T16:15:49;33.40;36.40
31038;DHT22;17702;47.590;7.666;2022-08-03T16:18:14;33.30;35.70
31038;DHT22;17702;47.590;7.666;2022-08-03T16:20:40;33.20;35.80
31038;DHT22;17702;47.590;7.666;2022-08-03T16:23:06;33.20;35.70
31038;DHT22;17702;47.590;7.666;2022-08-03T16:25:32;33.10;36.40
31038;DHT22;17702;47.590;7.666;2022-08-03T16:27:58;33.00;37.10